sensor_id;sensor_type;location;lat;lon;timestamp;pressure;altitude;pressure_sealevel;temperature;humidity
13765;BME280;6953;48.810;9.204;2023-03-15T00:01:55;98383.91;;;4.45;100.00
13765;BME280;6953;48.810;9.204;2023-03-15T00:04:21;98384.78;;;4.44;100.00
13765;BME280;6953;48.810;9.204;2023-03-15T00:06:49;98336.81;;;4.04;100.00
13765;BME280;6953;48.810;9.204;2023-03-15T00:09:14;98400.28;;;4.47;100.00
13765;BME280;6953;48.810;9.204;2023-03-15T00:11:39;98406.22;;;4.50;100.00
13765;BME280;6953;48.810;9.204;2023-03-15T00:14:05;98405.56;;;4.44;100.00
13765;BME280;6953;48.810;9.204;2023-03-15T00:16:30;98392.84;;;4.36;100.00
13765;BME280;6953;48.810;9.204;2023-03-15T00:18:57;98326.53;;;4.01;100.00
13765;BME280;6953;48.810;9.204;2023-03-15T00:21:23;98344.50;;;4.07;100.00
13765;BME280;6953;48.810;9.204;2023-03-15T00:23:48;98452.34;;;4.68;100.00
13765;BME280;6953;48.810;9.204;2023-03-15T00:26:14;98456.44;;;4.75;100.00
13765;BME280;6953;48.810;9.204;2023-03-15T00:28:40;98132.50;;;2.84;100.00
13765;BME280;6953;48.810;9.204;2023-03-15T00:31:11;98475.44;;;4.77;100.00
13765;BME280;6953;48.810;9.204;2023-03-15T00:33:37;98352.03;;;4.14;100.00
13765;BME280;6953;48.810;9.204;2023-03-15T00:36:04;98289.03;;;3.85;100.00
13765;BME280;6953;48.810;9.204;2023-03-15T00:38:31;98386.63;;;4.40;100.00
13765;BME280;6953;48.810;9.204;2023-03-15T00:40:58;98226.47;;;3.42;100.00
13765;BME280;6953;48.810;9.204;2023-03-15T00:43:23;98471.28;;;4.72;100.00
13765;BME280;6953;48.810;9.204;2023-03-15T00:45:49;98456.81;;;4.65;100.00
13765;BME280;6953;48.810;9.204;2023-03-15T00:48:14;98474.63;;;4.75;100.00
13765;BME280;6953;48.810;9.204;2023-03-15T00:50:39;98209.06;;;3.19;100.00
13765;BME280;6953;48.810;9.204;2023-03-15T00:53:05;98419.44;;;4.43;100.00
13765;BME280;6953;48.810;9.204;2023-03-15T00:55:30;98394.34;;;4.17;100.00
13765;BME280;6953;48.810;9.204;2023-03-15T00:57:55;98469.19;;;4.57;100.00
13765;BME280;6953;48.810;9.204;2023-03-15T01:00:22;98541.66;;;4.64;100.00
13765;BME280;6953;48.810;9.204;2023-03-15T01:02:50;98510.47;;;4.66;100.00
13765;BME280;6953;48.810;9.204;2023-03-15T01:05:16;98281.91;;;3.38;100.00
13765;BME280;6953;48.810;9.204;2023-03-15T01:07:41;98386.63;;;3.89;100.00
13765;BME280;6953;48.810;9.204;2023-03-15T01:10:11;98509.66;;;4.64;100.00
13765;BME280;6953;48.810;9.204;2023-03-15T01:12:36;98249.50;;;2.98;100.00
13765;BME280;6953;48.810;9.204;2023-03-15T01:15:04;98524.16;;;4.43;100.00
13765;BME280;6953;48.810;9.204;2023-03-15T01:17:29;98521.72;;;4.39;100.00
13765;BME280;6953;48.810;9.204;2023-03-15T01:19:55;98527.97;;;4.33;100.00
13765;BME280;6953;48.810;9.204;2023-03-15T01:22:20;98522.31;;;4.19;100.00
13765;BME280;6953;48.810;9.204;2023-03-15T01:24:46;98291.03;;;2.64;100.00
13765;BME280;6953;48.810;9.204;2023-03-15T01:27:11;98443.41;;;3.41;100.00
13765;BME280;6953;48.810;9.204;2023-03-15T01:29:37;98288.59;;;2.29;100.00
13765;BME280;6953;48.810;9.204;2023-03-15T01:32:02;98513.91;;;3.54;100.00
13765;BME280;6953;48.810;9.204;2023-03-15T01:34:28;98233.03;;;1.79;100.00
13765;BME280;6953;48.810;9.204;2023-03-15T01:36:53;98267.16;;;1.93;100.00
13765;BME280;6953;48.810;9.204;2023-03-15T01:39:19;98531.72;;;3.35;100.00
13765;BME280;6953;48.810;9.204;2023-03-15T01:41:44;98146.34;;;0.99;100.00
13765;BME280;6953;48.810;9.204;2023-03-15T01:44:14;98593.25;;;3.27;100.00
13765;BME280;6953;48.810;9.204;2023-03-15T01:46:40;98391.13;;;2.33;100.00
13765;BME280;6953;48.810;9.204;2023-03-15T01:54:21;98556.53;;;3.12;100.00
13765;BME280;6953;48.810;9.204;2023-03-15T01:56:53;98557.44;;;3.11;100.00
13765;BME280;6953;48.810;9.204;2023-03-15T01:59:28;98461.44;;;2.50;100.00
13765;BME280;6953;48.810;9.204;2023-03-15T02:01:55;98529.66;;;2.83;100.00
13765;BME280;6953;48.810;9.204;2023-03-15T02:04:26;98268.63;;;1.33;100.00
13765;BME280;6953;48.810;9.204;2023-03-15T02:06:54;98568.88;;;3.03;100.00
13765;BME280;6953;48.810;9.204;2023-03-15T02:09:27;98580.06;;;3.05;100.00
13765;BME280;6953;48.810;9.204;2023-03-15T02:11:56;98568.16;;;2.96;100.00
13765;BME280;6953;48.810;9.204;2023-03-15T02:14:22;98573.34;;;2.96;100.00
13765;BME280;6953;48.810;9.204;2023-03-15T02:16:48;98577.56;;;3.00;100.00
13765;BME280;6953;48.810;9.204;2023-03-15T02:19:50;98500.97;;;2.55;100.00
13765;BME280;6953;48.810;9.204;2023-03-15T02:22:28;98581.16;;;2.95;100.00
13765;BME280;6953;48.810;9.204;2023-03-15T02:27:34;98529.84;;;2.40;100.00
13765;BME280;6953;48.810;9.204;2023-03-15T02:30:03;98534.25;;;2.37;100.00
13765;BME280;6953;48.810;9.204;2023-03-15T02:32:29;98563.22;;;2.52;100.00
13765;BME280;6953;48.810;9.204;2023-03-15T02:34:55;98503.78;;;2.11;100.00
13765;BME280;6953;48.810;9.204;2023-03-15T02:37:20;98424.66;;;1.65;100.00
13765;BME280;6953;48.810;9.204;2023-03-15T02:39:46;98589.75;;;2.62;100.00
13765;BME280;6953;48.810;9.204;2023-03-15T02:42:12;98605.34;;;2.59;100.00
13765;BME280;6953;48.810;9.204;2023-03-15T02:44:40;98207.41;;;0.23;100.00
13765;BME280;6953;48.810;9.204;2023-03-15T02:47:13;98209.22;;;0.19;100.00
13765;BME280;6953;48.810;9.204;2023-03-15T02:49:42;98612.47;;;2.49;100.00
13765;BME280;6953;48.810;9.204;2023-03-15T02:52:08;98579.41;;;2.24;100.00
13765;BME280;6953;48.810;9.204;2023-03-15T02:54:33;98297.94;;;0.53;100.00
13765;BME280;6953;48.810;9.204;2023-03-15T02:57:00;98571.28;;;2.01;100.00
13765;BME280;6953;48.810;9.204;2023-03-15T02:59:26;98547.53;;;1.83;100.00
13765;BME280;6953;48.810;9.204;2023-03-15T03:01:51;98643.16;;;2.26;100.00
13765;BME280;6953;48.810;9.204;2023-03-15T03:04:17;98588.69;;;1.93;100.00
13765;BME280;6953;48.810;9.204;2023-03-15T03:06:42;98512.72;;;1.58;100.00
13765;BME280;6953;48.810;9.204;2023-03-15T03:09:08;98624.19;;;2.26;100.00
13765;BME280;6953;48.810;9.204;2023-03-15T03:11:35;98560.41;;;1.86;100.00
13765;BME280;6953;48.810;9.204;2023-03-15T03:14:01;98659.19;;;2.43;100.00
13765;BME280;6953;48.810;9.204;2023-03-15T03:16:28;98589.72;;;1.85;100.00
13765;BME280;6953;48.810;9.204;2023-03-15T03:18:56;98674.66;;;2.46;100.00
13765;BME280;6953;48.810;9.204;2023-03-15T03:21:22;98617.69;;;2.07;100.00
13765;BME280;6953;48.810;9.204;2023-03-15T03:23:47;98679.00;;;2.44;100.00
13765;BME280;6953;48.810;9.204;2023-03-15T03:26:15;98685.06;;;2.43;100.00
13765;BME280;6953;48.810;9.204;2023-03-15T03:28:44;98592.25;;;1.86;100.00
13765;BME280;6953;48.810;9.204;2023-03-15T03:31:18;98697.41;;;2.31;100.00
13765;BME280;6953;48.810;9.204;2023-03-15T03:33:44;98428.44;;;0.66;100.00
13765;BME280;6953;48.810;9.204;2023-03-15T03:36:09;98478.63;;;0.97;100.00
13765;BME280;6953;48.810;9.204;2023-03-15T03:38:41;98701.03;;;2.22;100.00
13765;BME280;6953;48.810;9.204;2023-03-15T03:41:08;98704.56;;;2.18;100.00
13765;BME280;6953;48.810;9.204;2023-03-15T03:43:33;98695.31;;;2.07;100.00
13765;BME280;6953;48.810;9.204;2023-03-15T03:45:59;98692.28;;;1.86;100.00
13765;BME280;6953;48.810;9.204;2023-03-15T03:48:24;98691.41;;;1.85;100.00
13765;BME280;6953;48.810;9.204;2023-03-15T03:50:49;98401.75;;;0.20;100.00
13765;BME280;6953;48.810;9.204;2023-03-15T03:53:15;98719.63;;;1.99;100.00
13765;BME280;6953;48.810;9.204;2023-03-15T03:55:40;98724.84;;;1.96;100.00
13765;BME280;6953;48.810;9.204;2023-03-15T03:58:07;98635.28;;;1.46;100.00
13765;BME280;6953;48.810;9.204;2023-03-15T04:00:33;98730.72;;;2.03;100.00
13765;BME280;6953;48.810;9.204;2023-03-15T04:02:58;98509.47;;;0.56;100.00
13765;BME280;6953;48.810;9.204;2023-03-15T04:05:23;98502.63;;;0.52;100.00
13765;BME280;6953;48.810;9.204;2023-03-15T04:07:49;98781.88;;;1.90;100.00
13765;BME280;6953;48.810;9.204;2023-03-15T04:10:15;98603.38;;;1.01;100.00
13765;BME280;6953;48.810;9.204;2023-03-15T04:12:41;98754.25;;;1.90;100.00
13765;BME280;6953;48.810;9.204;2023-03-15T04:15:07;98745.84;;;1.79;100.00
13765;BME280;6953;48.810;9.204;2023-03-15T04:17:33;98742.63;;;1.67;100.00
13765;BME280;6953;48.810;9.204;2023-03-15T04:19:58;98756.28;;;1.73;100.00
13765;BME280;6953;48.810;9.204;2023-03-15T04:22:26;98765.72;;;1.76;100.00
13765;BME280;6953;48.810;9.204;2023-03-15T04:24:51;98763.13;;;1.77;100.00
13765;BME280;6953;48.810;9.204;2023-03-15T04:27:17;98792.34;;;1.82;100.00
13765;BME280;6953;48.810;9.204;2023-03-15T04:29:42;98567.97;;;0.56;100.00
13765;BME280;6953;48.810;9.204;2023-03-15T04:32:08;98412.06;;;-0.34;100.00
13765;BME280;6953;48.810;9.204;2023-03-15T04:34:34;98690.03;;;1.19;100.00
13765;BME280;6953;48.810;9.204;2023-03-15T04:37:03;98783.81;;;1.77;100.00
13765;BME280;6953;48.810;9.204;2023-03-15T04:39:28;98781.19;;;1.80;100.00
13765;BME280;6953;48.810;9.204;2023-03-15T04:41:54;98690.78;;;1.24;100.00
13765;BME280;6953;48.810;9.204;2023-03-15T04:44:19;98749.69;;;1.56;100.00
13765;BME280;6953;48.810;9.204;2023-03-15T04:46:45;98789.81;;;1.79;100.00
13765;BME280;6953;48.810;9.204;2023-03-15T04:49:10;98430.13;;;-0.37;100.00
13765;BME280;6953;48.810;9.204;2023-03-15T04:51:35;98485.59;;;-0.12;100.00
13765;BME280;6953;48.810;9.204;2023-03-15T04:54:01;98571.75;;;0.32;100.00
13765;BME280;6953;48.810;9.204;2023-03-15T04:56:27;98791.88;;;1.58;100.00
13765;BME280;6953;48.810;9.204;2023-03-15T04:58:53;98664.69;;;0.88;100.00
13765;BME280;6953;48.810;9.204;2023-03-15T05:01:26;98515.44;;;0.04;100.00
13765;BME280;6953;48.810;9.204;2023-03-15T05:03:52;98791.66;;;1.71;100.00
13765;BME280;6953;48.810;9.204;2023-03-15T05:06:17;98782.16;;;1.73;100.00
13765;BME280;6953;48.810;9.204;2023-03-15T05:08:43;98734.44;;;1.42;100.00
13765;BME280;6953;48.810;9.204;2023-03-15T05:11:09;98465.69;;;-0.03;100.00
13765;BME280;6953;48.810;9.204;2023-03-15T05:13:35;98526.22;;;0.30;100.00
13765;BME280;6953;48.810;9.204;2023-03-15T05:16:00;98787.09;;;1.85;100.00
13765;BME280;6953;48.810;9.204;2023-03-15T05:18:27;98440.13;;;-0.14;100.00
13765;BME280;6953;48.810;9.204;2023-03-15T05:20:52;98795.94;;;1.72;100.00
13765;BME280;6953;48.810;9.204;2023-03-15T05:23:20;98687.31;;;1.25;100.00
13765;BME280;6953;48.810;9.204;2023-03-15T05:25:53;98725.63;;;1.52;100.00
13765;BME280;6953;48.810;9.204;2023-03-15T05:28:23;98770.31;;;1.60;100.00
13765;BME280;6953;48.810;9.204;2023-03-15T05:30:49;98779.28;;;1.90;100.00
13765;BME280;6953;48.810;9.204;2023-03-15T05:33:16;98791.28;;;1.94;100.00
13765;BME280;6953;48.810;9.204;2023-03-15T05:35:42;98761.38;;;1.79;100.00
13765;BME280;6953;48.810;9.204;2023-03-15T05:38:08;98786.00;;;2.00;100.00
13765;BME280;6953;48.810;9.204;2023-03-15T05:40:34;98678.59;;;1.32;100.00
13765;BME280;6953;48.810;9.204;2023-03-15T05:42:59;98815.28;;;2.02;100.00
13765;BME280;6953;48.810;9.204;2023-03-15T05:45:24;98792.72;;;2.09;100.00
13765;BME280;6953;48.810;9.204;2023-03-15T05:47:50;98794.31;;;2.16;100.00
13765;BME280;6953;48.810;9.204;2023-03-15T05:50:16;98786.63;;;2.12;100.00
13765;BME280;6953;48.810;9.204;2023-03-15T05:52:41;98440.63;;;0.08;100.00
13765;BME280;6953;48.810;9.204;2023-03-15T05:55:07;98496.03;;;0.38;100.00
13765;BME280;6953;48.810;9.204;2023-03-15T05:57:32;98854.44;;;2.30;100.00
13765;BME280;6953;48.810;9.204;2023-03-15T05:59:58;98761.75;;;2.05;100.00
13765;BME280;6953;48.810;9.204;2023-03-15T06:02:24;98809.47;;;2.36;100.00
13765;BME280;6953;48.810;9.204;2023-03-15T06:04:50;98792.78;;;2.05;100.00
13765;BME280;6953;48.810;9.204;2023-03-15T06:07:15;98813.63;;;2.44;100.00
13765;BME280;6953;48.810;9.204;2023-03-15T06:09:41;98736.69;;;2.07;100.00
13765;BME280;6953;48.810;9.204;2023-03-15T06:12:06;98844.59;;;2.49;100.00
13765;BME280;6953;48.810;9.204;2023-03-15T06:14:31;98529.41;;;0.97;100.00
13765;BME280;6953;48.810;9.204;2023-03-15T06:16:57;98820.88;;;2.70;100.00
13765;BME280;6953;48.810;9.204;2023-03-15T06:19:22;98824.19;;;2.78;100.00
13765;BME280;6953;48.810;9.204;2023-03-15T06:21:48;98533.31;;;1.18;100.00
13765;BME280;6953;48.810;9.204;2023-03-15T06:24:13;98766.75;;;2.58;100.00
13765;BME280;6953;48.810;9.204;2023-03-15T06:26:38;98741.28;;;2.37;100.00
13765;BME280;6953;48.810;9.204;2023-03-15T06:29:04;98775.84;;;2.77;100.00
13765;BME280;6953;48.810;9.204;2023-03-15T06:31:29;98827.78;;;3.11;100.00
13765;BME280;6953;48.810;9.204;2023-03-15T06:33:55;98653.75;;;2.14;100.00
13765;BME280;6953;48.810;9.204;2023-03-15T06:36:20;98858.47;;;3.29;99.40
13765;BME280;6953;48.810;9.204;2023-03-15T06:38:45;98840.16;;;3.37;97.86
13765;BME280;6953;48.810;9.204;2023-03-15T06:41:11;98844.28;;;3.47;97.89
13765;BME280;6953;48.810;9.204;2023-03-15T06:43:40;98762.97;;;3.13;96.73
13765;BME280;6953;48.810;9.204;2023-03-15T06:46:05;98842.84;;;3.70;96.87
13765;BME280;6953;48.810;9.204;2023-03-15T06:48:30;98829.81;;;3.73;96.25
13765;BME280;6953;48.810;9.204;2023-03-15T06:50:56;98870.91;;;3.91;94.55
13765;BME280;6953;48.810;9.204;2023-03-15T06:53:21;98824.00;;;3.64;93.15
13765;BME280;6953;48.810;9.204;2023-03-15T06:55:46;98848.59;;;4.19;92.18
13765;BME280;6953;48.810;9.204;2023-03-15T06:58:14;98839.63;;;4.30;91.09
13765;BME280;6953;48.810;9.204;2023-03-15T07:00:40;98817.91;;;4.33;90.70
13765;BME280;6953;48.810;9.204;2023-03-15T07:03:05;98836.41;;;4.54;90.79
13765;BME280;6953;48.810;9.204;2023-03-15T07:05:31;98642.22;;;3.39;88.78
13765;BME280;6953;48.810;9.204;2023-03-15T07:07:56;98925.91;;;4.75;87.57
13765;BME280;6953;48.810;9.204;2023-03-15T07:10:22;98836.56;;;4.79;87.85
13765;BME280;6953;48.810;9.204;2023-03-15T07:12:47;98849.81;;;5.00;87.07
13765;BME280;6953;48.810;9.204;2023-03-15T07:15:12;98846.22;;;5.04;85.11
13765;BME280;6953;48.810;9.204;2023-03-15T07:17:37;98642.97;;;4.07;84.83
13765;BME280;6953;48.810;9.204;2023-03-15T07:20:03;98849.59;;;5.38;83.86
13765;BME280;6953;48.810;9.204;2023-03-15T07:22:31;98694.34;;;4.56;83.75
13765;BME280;6953;48.810;9.204;2023-03-15T07:24:56;98853.28;;;5.58;82.73
13765;BME280;6953;48.810;9.204;2023-03-15T07:27:21;98630.88;;;4.36;82.08
13765;BME280;6953;48.810;9.204;2023-03-15T07:29:47;98857.03;;;5.77;80.37
13765;BME280;6953;48.810;9.204;2023-03-15T07:32:12;98865.72;;;6.55;79.21
13765;BME280;6953;48.810;9.204;2023-03-15T07:34:38;98841.94;;;8.83;68.48
13765;BME280;6953;48.810;9.204;2023-03-15T07:37:04;98853.44;;;10.95;58.94
13765;BME280;6953;48.810;9.204;2023-03-15T07:39:29;98834.22;;;12.50;51.34
13765;BME280;6953;48.810;9.204;2023-03-15T07:41:57;98848.91;;;13.55;46.85
13765;BME280;6953;48.810;9.204;2023-03-15T07:44:23;98674.25;;;12.83;44.12
13765;BME280;6953;48.810;9.204;2023-03-15T07:46:49;98651.44;;;12.98;42.96
13765;BME280;6953;48.810;9.204;2023-03-15T07:49:14;98871.78;;;15.00;40.68
13765;BME280;6953;48.810;9.204;2023-03-15T07:51:39;98685.38;;;14.59;38.57
13765;BME280;6953;48.810;9.204;2023-03-15T07:54:06;98851.81;;;16.32;36.81
13765;BME280;6953;48.810;9.204;2023-03-15T07:56:32;98556.84;;;15.31;35.65
13765;BME280;6953;48.810;9.204;2023-03-15T07:58:57;98857.03;;;18.24;33.23
13765;BME280;6953;48.810;9.204;2023-03-15T08:01:22;98623.75;;;16.69;31.67
13765;BME280;6953;48.810;9.204;2023-03-15T08:03:48;98661.00;;;16.33;33.29
13765;BME280;6953;48.810;9.204;2023-03-15T08:06:13;98878.59;;;17.43;34.52
13765;BME280;6953;48.810;9.204;2023-03-15T08:08:38;98711.94;;;17.04;32.65
13765;BME280;6953;48.810;9.204;2023-03-15T08:11:05;98876.94;;;16.50;35.01
13765;BME280;6953;48.810;9.204;2023-03-15T08:13:30;98645.19;;;13.13;39.41
13765;BME280;6953;48.810;9.204;2023-03-15T08:15:56;98822.22;;;14.00;40.02
13765;BME280;6953;48.810;9.204;2023-03-15T08:18:21;98688.44;;;14.02;38.18
13765;BME280;6953;48.810;9.204;2023-03-15T08:20:46;98845.22;;;16.01;36.75
13765;BME280;6953;48.810;9.204;2023-03-15T08:23:12;98737.22;;;16.17;34.88
13765;BME280;6953;48.810;9.204;2023-03-15T08:25:41;98875.50;;;17.25;33.97
13765;BME280;6953;48.810;9.204;2023-03-15T08:28:07;98906.25;;;16.59;34.66
13765;BME280;6953;48.810;9.204;2023-03-15T08:30:32;98877.38;;;16.08;35.74
13765;BME280;6953;48.810;9.204;2023-03-15T08:32:57;98855.06;;;16.93;34.25
13765;BME280;6953;48.810;9.204;2023-03-15T08:35:23;98872.69;;;18.16;32.24
13765;BME280;6953;48.810;9.204;2023-03-15T08:37:49;98845.19;;;19.11;30.23
13765;BME280;6953;48.810;9.204;2023-03-15T08:40:18;98879.69;;;20.22;27.60
13765;BME280;6953;48.810;9.204;2023-03-15T08:42:51;98717.28;;;20.02;25.83
13765;BME280;6953;48.810;9.204;2023-03-15T08:45:17;98901.56;;;21.69;25.48
13765;BME280;6953;48.810;9.204;2023-03-15T08:47:43;98937.56;;;22.47;23.15
13765;BME280;6953;48.810;9.204;2023-03-15T08:50:11;98836.03;;;22.28;23.32
13765;BME280;6953;48.810;9.204;2023-03-15T08:52:37;98787.53;;;21.70;23.26
13765;BME280;6953;48.810;9.204;2023-03-15T08:55:04;98916.94;;;21.94;23.94
13765;BME280;6953;48.810;9.204;2023-03-15T08:57:30;98767.94;;;20.30;23.94
13765;BME280;6953;48.810;9.204;2023-03-15T09:00:00;98694.75;;;18.97;25.57
13765;BME280;6953;48.810;9.204;2023-03-15T09:02:29;98898.94;;;21.12;24.11
13765;BME280;6953;48.810;9.204;2023-03-15T09:04:54;98732.13;;;20.71;23.04
13765;BME280;6953;48.810;9.204;2023-03-15T09:07:20;98937.88;;;22.44;22.16
13765;BME280;6953;48.810;9.204;2023-03-15T09:09:46;98731.66;;;21.49;22.32
13765;BME280;6953;48.810;9.204;2023-03-15T09:12:14;98944.44;;;21.49;23.40
13765;BME280;6953;48.810;9.204;2023-03-15T09:14:40;98948.16;;;19.31;25.41
13765;BME280;6953;48.810;9.204;2023-03-15T09:17:05;98940.53;;;17.98;27.86
13765;BME280;6953;48.810;9.204;2023-03-15T09:19:31;98929.75;;;17.56;28.62
13765;BME280;6953;48.810;9.204;2023-03-15T09:21:56;98926.91;;;17.91;28.31
13765;BME280;6953;48.810;9.204;2023-03-15T09:24:22;98733.91;;;17.39;27.43
13765;BME280;6953;48.810;9.204;2023-03-15T09:26:47;98931.13;;;18.38;28.17
13765;BME280;6953;48.810;9.204;2023-03-15T09:29:12;98876.91;;;17.42;28.96
13765;BME280;6953;48.810;9.204;2023-03-15T09:31:38;98923.78;;;16.49;31.30
13765;BME280;6953;48.810;9.204;2023-03-15T09:34:03;98893.97;;;15.62;33.21
13765;BME280;6953;48.810;9.204;2023-03-15T09:36:30;98924.63;;;15.27;34.47
13765;BME280;6953;48.810;9.204;2023-03-15T09:38:55;98915.31;;;14.56;34.20
13765;BME280;6953;48.810;9.204;2023-03-15T09:41:41;98931.28;;;14.41;34.68
13765;BME280;6953;48.810;9.204;2023-03-15T09:47:32;98682.78;;;12.45;35.43
13765;BME280;6953;48.810;9.204;2023-03-15T09:57:52;98927.78;;;11.94;39.78
13765;BME280;6953;48.810;9.204;2023-03-15T10:00:43;98913.69;;;11.80;40.96
13765;BME280;6953;48.810;9.204;2023-03-15T10:05:56;98615.41;;;10.00;41.64
13765;BME280;6953;48.810;9.204;2023-03-15T10:08:23;98937.91;;;11.69;40.44
13765;BME280;6953;48.810;9.204;2023-03-15T10:11:06;98957.69;;;11.76;39.14
13765;BME280;6953;48.810;9.204;2023-03-15T10:16:42;98723.81;;;12.20;37.22
13765;BME280;6953;48.810;9.204;2023-03-15T10:19:26;98677.19;;;12.93;35.85
13765;BME280;6953;48.810;9.204;2023-03-15T10:22:03;98859.91;;;14.02;35.35
13765;BME280;6953;48.810;9.204;2023-03-15T10:24:42;98640.63;;;12.03;36.36
13765;BME280;6953;48.810;9.204;2023-03-15T10:27:37;98917.94;;;13.18;37.40
13765;BME280;6953;48.810;9.204;2023-03-15T10:30:14;98920.53;;;12.90;38.12
13765;BME280;6953;48.810;9.204;2023-03-15T10:32:42;98704.34;;;11.48;38.14
13765;BME280;6953;48.810;9.204;2023-03-15T10:35:18;98952.78;;;12.94;37.95
13765;BME280;6953;48.810;9.204;2023-03-15T10:37:44;98925.25;;;13.56;36.06
13765;BME280;6953;48.810;9.204;2023-03-15T10:40:11;98903.31;;;14.64;34.24
13765;BME280;6953;48.810;9.204;2023-03-15T10:42:44;98956.25;;;15.41;31.74
13765;BME280;6953;48.810;9.204;2023-03-15T10:45:22;98912.34;;;15.88;29.27
13765;BME280;6953;48.810;9.204;2023-03-15T10:47:49;98931.09;;;17.72;27.88
13765;BME280;6953;48.810;9.204;2023-03-15T10:50:30;98904.28;;;20.94;22.65
13765;BME280;6953;48.810;9.204;2023-03-15T10:52:57;98734.72;;;22.78;20.50
13765;BME280;6953;48.810;9.204;2023-03-15T10:55:43;98916.53;;;23.66;19.92
13765;BME280;6953;48.810;9.204;2023-03-15T10:58:29;98962.84;;;22.62;20.86
13765;BME280;6953;48.810;9.204;2023-03-15T11:01:02;98808.13;;;19.69;23.51
13765;BME280;6953;48.810;9.204;2023-03-15T11:03:32;98958.44;;;18.82;25.81
13765;BME280;6953;48.810;9.204;2023-03-15T11:05:59;98911.97;;;17.00;28.32
13765;BME280;6953;48.810;9.204;2023-03-15T11:08:38;98943.78;;;15.92;30.45
13765;BME280;6953;48.810;9.204;2023-03-15T11:11:05;98934.94;;;14.78;32.56
13765;BME280;6953;48.810;9.204;2023-03-15T11:13:35;98939.19;;;14.14;33.61
13765;BME280;6953;48.810;9.204;2023-03-15T11:16:11;98930.94;;;13.35;35.82
13765;BME280;6953;48.810;9.204;2023-03-15T11:21:13;98937.63;;;12.06;42.41
13765;BME280;6953;48.810;9.204;2023-03-15T11:23:45;98902.19;;;11.33;46.06
13765;BME280;6953;48.810;9.204;2023-03-15T11:26:22;98929.34;;;11.00;48.08
13765;BME280;6953;48.810;9.204;2023-03-15T11:28:53;98896.75;;;10.53;50.18
13765;BME280;6953;48.810;9.204;2023-03-15T11:31:20;98893.44;;;10.83;50.17
13765;BME280;6953;48.810;9.204;2023-03-15T11:34:20;98897.38;;;11.09;48.75
13765;BME280;6953;48.810;9.204;2023-03-15T11:36:51;98831.78;;;10.58;46.87
13765;BME280;6953;48.810;9.204;2023-03-15T11:39:27;98884.59;;;11.18;45.33
13765;BME280;6953;48.810;9.204;2023-03-15T11:42:01;98907.75;;;11.44;44.27
13765;BME280;6953;48.810;9.204;2023-03-15T11:44:37;98894.31;;;11.65;43.70
13765;BME280;6953;48.810;9.204;2023-03-15T11:47:12;98701.00;;;10.83;40.42
13765;BME280;6953;48.810;9.204;2023-03-15T11:49:56;98947.66;;;12.15;39.47
13765;BME280;6953;48.810;9.204;2023-03-15T11:52:27;98904.38;;;12.21;37.71
13765;BME280;6953;48.810;9.204;2023-03-15T11:54:56;98911.84;;;12.13;37.64
13765;BME280;6953;48.810;9.204;2023-03-15T11:57:46;98902.06;;;12.15;37.96
13765;BME280;6953;48.810;9.204;2023-03-15T12:02:51;98681.75;;;10.67;37.82
13765;BME280;6953;48.810;9.204;2023-03-15T12:11:00;98663.56;;;10.15;40.19
13765;BME280;6953;48.810;9.204;2023-03-15T12:13:30;98905.97;;;11.77;40.89
13765;BME280;6953;48.810;9.204;2023-03-15T12:15:57;98664.28;;;10.50;40.23
13765;BME280;6953;48.810;9.204;2023-03-15T12:18:38;98900.84;;;12.51;39.52
13765;BME280;6953;48.810;9.204;2023-03-15T12:21:09;98841.19;;;12.22;39.21
13765;BME280;6953;48.810;9.204;2023-03-15T12:23:54;98922.22;;;12.60;39.09
13765;BME280;6953;48.810;9.204;2023-03-15T12:26:26;98920.34;;;12.78;39.39
13765;BME280;6953;48.810;9.204;2023-03-15T12:31:23;98908.34;;;15.70;33.87
13765;BME280;6953;48.810;9.204;2023-03-15T12:33:54;98694.78;;;14.75;32.01
13765;BME280;6953;48.810;9.204;2023-03-15T12:36:34;98894.16;;;15.34;33.48
13765;BME280;6953;48.810;9.204;2023-03-15T12:39:43;98922.47;;;15.07;34.99
13765;BME280;6953;48.810;9.204;2023-03-15T12:42:57;98916.00;;;15.11;35.28
13765;BME280;6953;48.810;9.204;2023-03-15T12:47:46;98917.56;;;14.36;36.06
13765;BME280;6953;48.810;9.204;2023-03-15T12:58:45;98930.78;;;12.95;50.64
13765;BME280;6953;48.810;9.204;2023-03-15T13:01:13;98958.69;;;12.97;50.03
13765;BME280;6953;48.810;9.204;2023-03-15T13:03:40;98934.53;;;13.05;50.83
13765;BME280;6953;48.810;9.204;2023-03-15T13:06:34;98944.16;;;13.06;51.40
13765;BME280;6953;48.810;9.204;2023-03-15T13:11:58;98937.59;;;11.75;56.17
13765;BME280;6953;48.810;9.204;2023-03-15T13:23:15;98949.25;;;12.33;56.77
13765;BME280;6953;48.810;9.204;2023-03-15T13:31:10;98918.00;;;16.32;42.47
13765;BME280;6953;48.810;9.204;2023-03-15T13:33:37;98923.69;;;15.28;44.94
13765;BME280;6953;48.810;9.204;2023-03-15T13:36:10;98881.31;;;14.25;47.13
13765;BME280;6953;48.810;9.204;2023-03-15T13:41:04;98941.06;;;13.43;50.32
13765;BME280;6953;48.810;9.204;2023-03-15T13:43:35;98664.50;;;11.71;50.51
13765;BME280;6953;48.810;9.204;2023-03-15T13:46:02;98931.53;;;12.81;50.51
13765;BME280;6953;48.810;9.204;2023-03-15T13:48:29;98939.06;;;12.43;53.06
13765;BME280;6953;48.810;9.204;2023-03-15T13:51:03;98861.66;;;11.22;56.46
13765;BME280;6953;48.810;9.204;2023-03-15T13:53:32;98954.22;;;10.93;60.36
13765;BME280;6953;48.810;9.204;2023-03-15T13:55:58;98940.53;;;9.97;63.90
13765;BME280;6953;48.810;9.204;2023-03-15T13:58:24;98960.63;;;9.40;66.70
13765;BME280;6953;48.810;9.204;2023-03-15T14:00:56;98722.66;;;7.38;70.72
13765;BME280;6953;48.810;9.204;2023-03-15T14:03:22;98969.75;;;8.27;74.95
13765;BME280;6953;48.810;9.204;2023-03-15T14:05:50;98922.34;;;7.71;76.98
13765;BME280;6953;48.810;9.204;2023-03-15T14:08:21;98895.50;;;7.67;79.80
13765;BME280;6953;48.810;9.204;2023-03-15T14:11:05;98966.25;;;8.06;80.00
13765;BME280;6953;48.810;9.204;2023-03-15T14:13:34;99004.09;;;7.96;80.91
13765;BME280;6953;48.810;9.204;2023-03-15T14:16:05;98928.63;;;7.88;81.40
13765;BME280;6953;48.810;9.204;2023-03-15T14:18:35;98908.06;;;8.45;80.72
13765;BME280;6953;48.810;9.204;2023-03-15T14:21:15;98662.72;;;7.76;80.27
13765;BME280;6953;48.810;9.204;2023-03-15T14:23:44;98663.50;;;8.38;77.72
13765;BME280;6953;48.810;9.204;2023-03-15T14:26:19;98978.81;;;9.63;77.48
13765;BME280;6953;48.810;9.204;2023-03-15T14:28:51;98698.66;;;7.71;78.11